Time,TemperatureF,DewpointF,PressureIn,WindDirection,WindDirectionDegrees,WindSpeedMPH,WindSpeedGustMPH,Humidity,HourlyPrecipIn,Conditions,Clouds,dailyrainin,SoftwareType,DateUTC
2013-09-05 00:01:00,69.3,67.8,30.10,North,0,0.0,0.0,95,0.00,,,0.00,meteohub,2013-09-05 04:01:00,
2013-09-05 00:06:00,69.1,67.6,30.10,North,0,0.0,0.0,95,0.00,,,0.00,meteohub,2013-09-05 04:06:00,
2013-09-05 00:11:00,68.9,67.5,30.10,North,0,0.0,0.0,95,0.00,,,0.00,meteohub,2013-09-05 04:11:00,
2013-09-05 00:16:00,68.9,67.5,30.10,North,0,0.0,0.0,95,0.00,,,0.00,meteohub,2013-09-05 04:16:00,
2013-09-05 00:21:00,68.9,67.5,30.10,North,0,0.0,0.0,95,0.00,,,0.00,meteohub,2013-09-05 04:21:00,
2013-09-05 00:26:00,68.9,67.5,30.10,North,0,0.0,0.0,95,0.00,,,0.00,meteohub,2013-09-05 04:26:00,
2013-09-05 00:31:00,68.7,67.3,30.10,North,0,0.0,0.0,95,0.00,,,0.00,meteohub,2013-09-05 04:31:00,
2013-09-05 00:36:00,68.7,67.3,30.10,North,0,0.0,0.0,95,0.00,,,0.00,meteohub,2013-09-05 04:36:00,
2013-09-05 00:41:00,68.5,67.1,30.10,North,0,0.0,0.0,95,0.00,,,0.00,meteohub,2013-09-05 04:41:00,
2013-09-05 00:46:00,68.5,67.1,30.10,North,0,0.0,0.0,95,0.00,,,0.00,meteohub,2013-09-05 04:46:00,
2013-09-05 00:51:00,68.4,66.9,30.10,North,0,0.0,0.0,95,0.00,,,0.00,meteohub,2013-09-05 04:51:00,
2013-09-05 00:57:00,68.4,66.9,30.10,North,0,0.0,0.0,95,0.00,,,0.00,meteohub,2013-09-05 04:57:00,
2013-09-05 01:02:00,68.4,66.9,30.10,North,0,0.0,0.0,95,0.00,,,0.00,meteohub,2013-09-05 05:02:00,
2013-09-05 01:07:00,68.2,66.7,30.10,North,0,0.0,0.0,95,0.00,,,0.00,meteohub,2013-09-05 05:07:00,
2013-09-05 01:12:00,68.2,66.7,30.10,North,0,0.0,0.0,95,0.00,,,0.00,meteohub,2013-09-05 05:12:00,
2013-09-05 01:17:00,68.2,66.7,30.10,North,0,0.0,0.0,95,0.00,,,0.00,meteohub,2013-09-05 05:17:00,
2013-09-05 01:22:00,68.0,66.6,30.10,North,0,0.0,0.0,95,0.00,,,0.00,meteohub,2013-09-05 05:22:00,
2013-09-05 01:27:00,68.0,66.6,30.10,North,0,0.0,0.0,95,0.00,,,0.00,meteohub,2013-09-05 05:27:00,
2013-09-05 01:32:00,68.0,66.7,30.10,North,0,0.0,0.0,96,0.00,,,0.00,meteohub,2013-09-05 05:32:00,
2013-09-05 01:37:00,68.0,66.7,30.10,North,0,0.0,0.0,96,0.00,,,0.00,meteohub,2013-09-05 05:37:00,
2013-09-05 01:42:00,68.0,66.7,30.10,North,0,0.0,0.0,96,0.00,,,0.00,meteohub,2013-09-05 05:42:00,
2013-09-05 01:47:00,68.0,66.7,30.10,North,0,0.0,0.0,96,0.00,,,0.00,meteohub,2013-09-05 05:47:00,
2013-09-05 01:52:00,68.0,66.7,30.10,North,0,0.0,0.0,96,0.00,,,0.00,meteohub,2013-09-05 05:52:00,
2013-09-05 01:57:00,68.0,66.6,30.10,North,0,0.0,0.0,95,0.00,,,0.00,meteohub,2013-09-05 05:57:00,
2013-09-05 02:02:00,68.0,66.6,30.10,North,0,0.0,0.0,95,0.00,,,0.00,meteohub,2013-09-05 06:02:00,
2013-09-05 02:07:00,67.8,66.6,30.10,North,0,0.0,0.0,96,0.00,,,0.00,meteohub,2013-09-05 06:07:00,
2013-09-05 02:12:00,67.6,66.4,30.10,North,0,0.0,0.0,96,0.00,,,0.00,meteohub,2013-09-05 06:12:00,
2013-09-05 02:17:00,67.6,66.4,30.10,North,0,0.0,0.0,96,0.00,,,0.00,meteohub,2013-09-05 06:17:00,
2013-09-05 02:22:00,67.6,66.7,30.10,North,0,0.0,0.0,97,0.00,,,0.00,meteohub,2013-09-05 06:22:00,
2013-09-05 02:27:00,67.8,66.9,30.07,North,0,0.0,0.0,97,0.00,,,0.00,meteohub,2013-09-05 06:27:00,
2013-09-05 02:31:00,67.6,66.7,30.07,North,0,0.0,0.0,97,0.00,,,0.00,meteohub,2013-09-05 06:31:00,
2013-09-05 02:37:00,67.6,66.7,30.07,North,0,0.0,0.0,97,0.00,,,0.00,meteohub,2013-09-05 06:37:00,
2013-09-05 02:42:00,67.6,66.7,30.07,North,0,0.0,0.0,97,0.00,,,0.00,meteohub,2013-09-05 06:42:00,
2013-09-05 02:47:00,67.5,66.6,30.07,North,0,0.0,0.0,97,0.00,,,0.00,meteohub,2013-09-05 06:47:00,
2013-09-05 02:52:00,67.3,66.4,30.07,North,0,0.0,0.0,97,0.00,,,0.00,meteohub,2013-09-05 06:52:00,
2013-09-05 02:57:00,67.3,66.4,30.07,North,0,0.0,0.0,97,0.00,,,0.00,meteohub,2013-09-05 06:57:00,
2013-09-05 03:02:00,67.1,66.2,30.07,North,0,0.0,0.0,97,0.00,,,0.00,meteohub,2013-09-05 07:02:00,
2013-09-05 03:07:00,67.1,66.2,30.07,North,0,0.0,0.0,97,0.00,,,0.00,meteohub,2013-09-05 07:07:00,
2013-09-05 03:12:00,66.9,66.0,30.07,North,0,0.0,0.0,97,0.00,,,0.00,meteohub,2013-09-05 07:12:00,
2013-09-05 03:17:00,66.7,65.8,30.07,North,0,0.0,0.0,97,0.00,,,0.00,meteohub,2013-09-05 07:17:00,
2013-09-05 03:22:00,66.7,65.8,30.07,North,0,0.0,0.0,97,0.00,,,0.00,meteohub,2013-09-05 07:22:00,
2013-09-05 03:27:00,66.6,65.7,30.07,North,0,0.0,0.0,97,0.00,,,0.00,meteohub,2013-09-05 07:27:00,
2013-09-05 03:32:00,66.6,65.7,30.07,North,0,0.0,0.0,97,0.00,,,0.00,meteohub,2013-09-05 07:32:00,
2013-09-05 03:37:00,66.7,66.2,30.07,North,0,0.0,0.0,98,0.00,,,0.00,meteohub,2013-09-05 07:37:00,
2013-09-05 03:42:00,66.6,66.0,30.07,North,0,0.0,0.0,98,0.00,,,0.00,meteohub,2013-09-05 07:42:00,
2013-09-05 03:47:00,66.6,66.0,30.07,North,0,0.0,0.0,98,0.00,,,0.00,meteohub,2013-09-05 07:47:00,
2013-09-05 03:52:00,66.4,65.8,30.07,North,0,0.0,0.0,98,0.00,,,0.00,meteohub,2013-09-05 07:52:00,
2013-09-05 03:57:00,66.4,65.8,30.07,North,0,0.0,0.0,98,0.00,,,0.00,meteohub,2013-09-05 07:57:00,
2013-09-05 04:02:00,66.4,65.8,30.07,North,0,0.0,0.0,98,0.00,,,0.00,meteohub,2013-09-05 08:02:00,
2013-09-05 04:07:00,66.2,65.7,30.07,North,0,0.0,0.0,98,0.00,,,0.00,meteohub,2013-09-05 08:07:00,
2013-09-05 04:12:00,66.2,65.7,30.07,North,0,0.0,0.0,98,0.00,,,0.00,meteohub,2013-09-05 08:12:00,
2013-09-05 04:17:00,66.0,65.5,30.07,North,0,0.0,0.0,98,0.00,,,0.00,meteohub,2013-09-05 08:17:00,
2013-09-05 04:22:00,66.0,65.5,30.07,North,0,0.0,0.0,98,0.00,,,0.00,meteohub,2013-09-05 08:22:00,
2013-09-05 04:27:00,66.0,65.5,30.07,North,0,0.0,0.0,98,0.00,,,0.00,meteohub,2013-09-05 08:27:00,
2013-09-05 04:32:00,66.0,65.5,30.07,North,0,0.0,0.0,98,0.00,,,0.00,meteohub,2013-09-05 08:32:00,
2013-09-05 04:37:00,66.0,65.5,30.07,North,0,0.0,0.0,98,0.00,,,0.00,meteohub,2013-09-05 08:37:00,
2013-09-05 04:42:00,66.0,65.5,30.07,North,0,0.0,0.0,98,0.00,,,0.00,meteohub,2013-09-05 08:42:00,
2013-09-05 04:47:00,66.0,65.5,30.07,North,0,0.0,0.0,98,0.00,,,0.00,meteohub,2013-09-05 08:47:00,
2013-09-05 04:52:00,65.8,65.3,30.07,North,0,0.0,0.0,98,0.00,,,0.00,meteohub,2013-09-05 08:52:00,
2013-09-05 04:57:00,65.8,65.3,30.07,North,0,0.0,0.0,98,0.00,,,0.00,meteohub,2013-09-05 08:57:00,
2013-09-05 05:02:00,65.8,65.3,30.07,North,0,0.0,0.0,98,0.00,,,0.00,meteohub,2013-09-05 09:02:00,
2013-09-05 05:07:00,65.8,65.3,30.07,North,0,0.0,0.0,98,0.00,,,0.00,meteohub,2013-09-05 09:07:00,
2013-09-05 05:12:00,65.7,65.1,30.07,North,0,0.0,0.0,98,0.00,,,0.00,meteohub,2013-09-05 09:12:00,
2013-09-05 05:17:00,65.7,65.1,30.07,North,0,0.0,0.0,98,0.00,,,0.00,meteohub,2013-09-05 09:17:00,
2013-09-05 05:22:00,65.7,65.1,30.07,North,0,0.0,0.0,98,0.00,,,0.00,meteohub,2013-09-05 09:22:00,
2013-09-05 05:27:00,65.7,65.1,30.07,North,0,0.0,0.0,98,0.00,,,0.00,meteohub,2013-09-05 09:27:00,
2013-09-05 05:32:00,65.5,64.9,30.07,North,0,0.0,0.0,98,0.00,,,0.00,meteohub,2013-09-05 09:32:00,
2013-09-05 05:37:00,65.5,64.9,30.07,North,0,0.0,0.0,98,0.00,,,0.00,meteohub,2013-09-05 09:37:00,
2013-09-05 05:42:00,65.3,64.8,30.07,North,0,0.0,0.0,98,0.00,,,0.00,meteohub,2013-09-05 09:42:00,
2013-09-05 05:47:00,65.1,64.6,30.07,North,0,0.0,0.0,98,0.00,,,0.00,meteohub,2013-09-05 09:47:00,
2013-09-05 05:52:00,65.1,64.6,30.07,North,0,0.0,0.0,98,0.00,,,0.00,meteohub,2013-09-05 09:52:00,
2013-09-05 05:57:00,64.9,64.4,30.07,North,0,0.0,0.0,98,0.00,,,0.00,meteohub,2013-09-05 09:57:00,
2013-09-05 06:02:00,64.8,64.2,30.07,North,0,0.0,0.0,98,0.00,,,0.00,meteohub,2013-09-05 10:02:00,
2013-09-05 06:07:00,64.9,64.4,30.07,North,0,0.0,0.0,98,0.00,,,0.00,meteohub,2013-09-05 10:07:00,
2013-09-05 06:12:00,64.9,64.4,30.07,North,0,0.0,0.0,98,0.00,,,0.00,meteohub,2013-09-05 10:12:00,
2013-09-05 06:17:00,65.1,64.6,30.07,North,0,0.0,0.0,98,0.00,,,0.00,meteohub,2013-09-05 10:17:00,
2013-09-05 06:22:00,64.9,64.4,30.07,North,0,0.0,0.0,98,0.00,,,0.00,meteohub,2013-09-05 10:22:00,
2013-09-05 06:26:00,64.9,64.4,30.07,North,0,0.0,0.0,98,0.00,,,0.00,meteohub,2013-09-05 10:26:00,
2013-09-05 06:32:00,64.8,64.2,30.07,North,0,0.0,0.0,98,0.00,,,0.00,meteohub,2013-09-05 10:32:00,
2013-09-05 06:37:00,64.8,64.2,30.07,North,0,0.0,0.0,98,0.00,,,0.00,meteohub,2013-09-05 10:37:00,
2013-09-05 06:42:00,64.8,64.2,30.07,North,0,0.0,0.0,98,0.00,,,0.00,meteohub,2013-09-05 10:42:00,
2013-09-05 06:47:00,65.1,64.6,30.07,North,0,0.0,0.0,98,0.00,,,0.00,meteohub,2013-09-05 10:47:00,
2013-09-05 06:52:00,65.3,64.8,30.07,NNE,22,0.0,0.0,98,0.00,,,0.00,meteohub,2013-09-05 10:52:00,
2013-09-05 06:57:00,65.5,64.9,30.10,NNE,22,0.0,0.0,98,0.00,,,0.00,meteohub,2013-09-05 10:57:00,
2013-09-05 07:02:00,65.8,65.3,30.10,ENE,68,0.0,0.0,98,0.00,,,0.00,meteohub,2013-09-05 11:02:00,
2013-09-05 07:06:00,65.8,65.3,30.10,NE,45,0.0,0.0,98,0.00,,,0.00,meteohub,2013-09-05 11:06:00,
2013-09-05 07:12:00,66.0,65.5,30.10,North,0,0.0,0.0,98,0.00,,,0.00,meteohub,2013-09-05 11:12:00,
2013-09-05 07:17:00,66.0,65.5,30.10,North,0,0.0,0.0,98,0.00,,,0.00,meteohub,2013-09-05 11:17:00,
2013-09-05 07:22:00,66.0,65.5,30.10,North,0,0.0,0.0,98,0.00,,,0.00,meteohub,2013-09-05 11:22:00,
2013-09-05 07:27:00,66.0,65.5,30.10,North,0,0.0,0.0,98,0.00,,,0.00,meteohub,2013-09-05 11:27:00,
2013-09-05 07:32:00,66.0,65.5,30.10,North,0,0.0,0.0,98,0.00,,,0.00,meteohub,2013-09-05 11:32:00,
2013-09-05 07:37:00,66.2,65.7,30.10,North,0,0.0,0.0,98,0.00,,,0.00,meteohub,2013-09-05 11:37:00,
2013-09-05 07:42:00,66.2,65.7,30.10,North,0,0.0,0.0,98,0.00,,,0.00,meteohub,2013-09-05 11:42:00,
2013-09-05 07:47:00,66.4,65.8,30.10,North,0,0.0,0.0,98,0.00,,,0.00,meteohub,2013-09-05 11:47:00,
2013-09-05 07:52:00,66.6,66.0,30.10,North,0,0.0,0.0,98,0.00,,,0.00,meteohub,2013-09-05 11:52:00,
2013-09-05 07:57:00,66.9,66.4,30.10,North,0,0.0,0.0,98,0.00,,,0.00,meteohub,2013-09-05 11:57:00,
2013-09-05 08:02:00,67.1,66.6,30.10,North,0,0.0,0.0,98,0.00,,,0.00,meteohub,2013-09-05 12:02:00,
2013-09-05 08:07:00,67.5,66.9,30.10,North,0,0.0,0.0,98,0.00,,,0.00,meteohub,2013-09-05 12:07:00,
2013-09-05 08:12:00,67.6,67.1,30.10,North,0,0.0,0.0,98,0.00,,,0.00,meteohub,2013-09-05 12:12:00,
2013-09-05 08:17:00,68.0,67.5,30.10,North,0,0.0,0.0,98,0.00,,,0.00,meteohub,2013-09-05 12:17:00,
2013-09-05 08:22:00,68.4,67.8,30.10,North,0,0.0,0.0,98,0.00,,,0.00,meteohub,2013-09-05 12:22:00,
2013-09-05 08:27:00,68.7,68.2,30.10,North,0,0.0,0.0,98,0.00,,,0.00,meteohub,2013-09-05 12:27:00,
2013-09-05 08:32:00,68.9,68.4,30.10,ENE,68,0.0,0.0,98,0.00,,,0.00,meteohub,2013-09-05 12:32:00,
2013-09-05 08:37:00,69.4,68.9,30.10,North,0,0.0,3.0,98,0.00,,,0.00,meteohub,2013-09-05 12:37:00,
2013-09-05 08:42:00,70.2,69.6,30.10,ENE,68,0.0,4.0,98,0.00,,,0.00,meteohub,2013-09-05 12:42:00,
2013-09-05 08:47:00,70.7,70.2,30.10,NE,45,0.0,4.0,98,0.00,,,0.00,meteohub,2013-09-05 12:47:00,
2013-09-05 08:52:00,71.2,70.0,30.10,SW,225,0.0,4.0,96,0.00,,,0.00,meteohub,2013-09-05 12:52:00,
2013-09-05 08:57:00,71.6,69.1,30.10,SW,225,0.0,4.0,92,0.00,,,0.00,meteohub,2013-09-05 12:57:00,
2013-09-05 09:02:00,72.1,67.6,30.10,SW,225,3.0,4.0,86,0.00,,,0.00,meteohub,2013-09-05 13:02:00,
2013-09-05 09:07:00,72.5,65.7,30.10,West,270,0.0,4.0,79,0.00,,,0.00,meteohub,2013-09-05 13:07:00,
2013-09-05 09:12:00,73.0,62.2,30.10,WSW,248,3.0,5.0,69,0.00,,,0.00,meteohub,2013-09-05 13:12:00,
2013-09-05 09:17:00,73.4,60.4,30.10,NW,315,2.0,5.0,64,0.00,,,0.00,meteohub,2013-09-05 13:17:00,
2013-09-05 09:22:00,73.6,60.6,30.10,WSW,248,0.0,5.0,64,0.00,,,0.00,meteohub,2013-09-05 13:22:00,
2013-09-05 09:27:00,73.8,60.4,30.10,WSW,248,0.0,4.0,63,0.00,,,0.00,meteohub,2013-09-05 13:27:00,
2013-09-05 09:32:00,74.5,59.2,30.10,ENE,68,3.0,4.0,59,0.00,,,0.00,meteohub,2013-09-05 13:32:00,
2013-09-05 09:37:00,75.4,55.9,30.10,NE,45,3.0,5.0,51,0.00,,,0.00,meteohub,2013-09-05 13:37:00,
2013-09-05 09:42:00,76.1,55.6,30.10,North,0,0.0,5.0,49,0.00,,,0.00,meteohub,2013-09-05 13:42:00,
2013-09-05 09:47:00,77.0,55.8,30.10,North,0,0.0,5.0,48,0.00,,,0.00,meteohub,2013-09-05 13:47:00,
2013-09-05 09:52:00,77.9,56.1,30.10,NW,315,0.0,4.0,47,0.00,,,0.00,meteohub,2013-09-05 13:52:00,
2013-09-05 09:57:00,77.9,55.4,30.10,North,0,3.0,4.0,46,0.00,,,0.00,meteohub,2013-09-05 13:57:00,
2013-09-05 10:02:00,78.1,55.0,30.10,NE,45,3.0,4.0,45,0.00,,,0.00,meteohub,2013-09-05 14:02:00,
2013-09-05 10:07:00,78.3,54.5,30.10,SE,135,2.0,8.0,44,0.00,,,0.00,meteohub,2013-09-05 14:07:00,
2013-09-05 10:12:00,78.3,54.0,30.10,NNE,22,4.0,8.0,43,0.00,,,0.00,meteohub,2013-09-05 14:12:00,
2013-09-05 10:17:00,78.3,53.2,30.10,NNE,22,6.0,8.0,42,0.00,,,0.00,meteohub,2013-09-05 14:17:00,
2013-09-05 10:22:00,77.5,53.2,30.10,WSW,248,0.0,8.0,43,0.00,,,0.00,meteohub,2013-09-05 14:22:00,
2013-09-05 10:27:00,77.7,54.7,30.10,ENE,68,2.0,8.0,45,0.00,,,0.00,meteohub,2013-09-05 14:27:00,
2013-09-05 10:32:00,77.5,54.5,30.10,NNE,22,3.0,7.0,45,0.00,,,0.00,meteohub,2013-09-05 14:32:00,
2013-09-05 10:37:00,77.5,53.2,30.10,West,270,4.0,6.0,43,0.00,,,0.00,meteohub,2013-09-05 14:37:00,
2013-09-05 10:42:00,77.7,54.1,30.10,WNW,292,0.0,6.0,44,0.00,,,0.00,meteohub,2013-09-05 14:42:00,
2013-09-05 10:47:00,77.7,54.1,30.10,SW,225,0.0,6.0,44,0.00,,,0.00,meteohub,2013-09-05 14:47:00,
2013-09-05 10:52:00,77.7,52.9,30.10,SW,225,5.0,6.0,42,0.00,,,0.00,meteohub,2013-09-05 14:52:00,
2013-09-05 10:57:00,77.7,54.1,30.10,South,180,3.0,6.0,44,0.00,,,0.00,meteohub,2013-09-05 14:57:00,
2013-09-05 11:02:00,77.7,53.4,30.10,SE,135,3.0,6.0,43,0.00,,,0.00,meteohub,2013-09-05 15:02:00,
2013-09-05 11:07:00,78.4,54.1,30.10,NW,315,2.0,6.0,43,0.00,,,0.00,meteohub,2013-09-05 15:07:00,
2013-09-05 11:12:00,78.8,53.8,30.10,West,270,0.0,6.0,42,0.00,,,0.00,meteohub,2013-09-05 15:12:00,
2013-09-05 11:17:00,79.5,53.8,30.10,ENE,68,4.0,6.0,41,0.00,,,0.00,meteohub,2013-09-05 15:17:00,
2013-09-05 11:22:00,79.7,51.8,30.10,SW,225,5.0,6.0,38,0.00,,,0.00,meteohub,2013-09-05 15:22:00,
2013-09-05 11:27:00,80.1,52.2,30.10,West,270,4.0,6.0,38,0.00,,,0.00,meteohub,2013-09-05 15:27:00,
2013-09-05 11:32:00,79.5,51.6,30.10,SW,225,0.0,6.0,38,0.00,,,0.00,meteohub,2013-09-05 15:32:00,
2013-09-05 11:37:00,80.6,53.4,30.10,West,270,0.0,6.0,39,0.00,,,0.00,meteohub,2013-09-05 15:37:00,
2013-09-05 11:42:00,81.5,52.7,30.10,NNE,22,4.0,6.0,37,0.00,,,0.00,meteohub,2013-09-05 15:42:00,
2013-09-05 11:47:00,81.5,52.7,30.10,WSW,248,3.0,5.0,37,0.00,,,0.00,meteohub,2013-09-05 15:47:00,
2013-09-05 11:52:00,82.0,54.7,30.10,WSW,248,3.0,5.0,39,0.00,,,0.00,meteohub,2013-09-05 15:52:00,
2013-09-05 11:57:00,83.5,54.5,30.10,SE,135,3.0,5.0,37,0.00,,,0.00,meteohub,2013-09-05 15:57:00,
2013-09-05 12:02:00,82.6,51.4,30.10,SW,225,4.0,5.0,34,0.00,,,0.00,meteohub,2013-09-05 16:02:00,
2013-09-05 12:07:00,83.8,54.0,30.10,NW,315,4.0,5.0,36,0.00,,,0.00,meteohub,2013-09-05 16:07:00,
2013-09-05 12:12:00,82.9,53.2,30.10,WSW,248,2.0,5.0,36,0.00,,,0.00,meteohub,2013-09-05 16:12:00,
2013-09-05 12:17:00,83.5,52.2,30.10,NE,45,2.0,8.0,34,0.00,,,0.00,meteohub,2013-09-05 16:17:00,
2013-09-05 12:22:00,84.6,52.3,30.10,NNW,338,2.0,8.0,33,0.00,,,0.00,meteohub,2013-09-05 16:22:00,
2013-09-05 12:27:00,84.2,52.0,30.10,WSW,248,6.0,6.0,33,0.00,,,0.00,meteohub,2013-09-05 16:27:00,
2013-09-05 12:32:00,84.2,51.1,30.10,WSW,248,6.0,6.0,32,0.00,,,0.00,meteohub,2013-09-05 16:32:00,
2013-09-05 12:37:00,83.3,50.4,30.10,South,180,4.0,7.0,32,0.00,,,0.00,meteohub,2013-09-05 16:37:00,
2013-09-05 12:42:00,84.6,51.4,30.10,NNE,22,4.0,8.0,32,0.00,,,0.00,meteohub,2013-09-05 16:42:00,
2013-09-05 12:47:00,84.9,52.5,30.10,East,90,3.0,8.0,33,0.00,,,0.00,meteohub,2013-09-05 16:47:00,
2013-09-05 12:52:00,83.5,51.4,30.10,SW,225,4.0,8.0,33,0.00,,,0.00,meteohub,2013-09-05 16:52:00,
2013-09-05 12:57:00,84.9,54.1,30.10,West,270,4.0,8.0,35,0.00,,,0.00,meteohub,2013-09-05 16:57:00,
2013-09-05 13:02:00,84.6,53.1,30.10,WSW,248,6.0,8.0,34,0.00,,,0.00,meteohub,2013-09-05 17:02:00,
2013-09-05 13:07:00,85.3,52.9,30.10,WSW,248,6.0,8.0,33,0.00,,,0.00,meteohub,2013-09-05 17:07:00,
2013-09-05 13:12:00,84.6,50.5,30.10,WSW,248,4.0,8.0,31,0.00,,,0.00,meteohub,2013-09-05 17:12:00,
2013-09-05 13:17:00,85.5,54.0,30.10,NE,45,3.0,9.0,34,0.00,,,0.00,meteohub,2013-09-05 17:17:00,
2013-09-05 13:22:00,86.2,52.9,30.10,SSW,202,3.0,9.0,32,0.00,,,0.00,meteohub,2013-09-05 17:22:00,
2013-09-05 13:27:00,85.8,51.6,30.10,WSW,248,3.0,9.0,31,0.00,,,0.00,meteohub,2013-09-05 17:27:00,
2013-09-05 13:32:00,86.5,51.4,30.10,WSW,248,3.0,6.0,30,0.00,,,0.00,meteohub,2013-09-05 17:32:00,
2013-09-05 13:37:00,86.5,51.4,30.10,WSW,248,5.0,6.0,30,0.00,,,0.00,meteohub,2013-09-05 17:37:00,
2013-09-05 13:42:00,85.8,49.8,30.10,SSW,202,2.0,10.0,29,0.00,,,0.00,meteohub,2013-09-05 17:42:00,
2013-09-05 13:47:00,85.5,49.6,30.10,WSW,248,4.0,10.0,29,0.00,,,0.00,meteohub,2013-09-05 17:47:00,
2013-09-05 13:52:00,86.7,50.7,30.10,SSW,202,4.0,10.0,29,0.00,,,0.00,meteohub,2013-09-05 17:52:00,
2013-09-05 13:57:00,86.7,49.6,30.07,ESE,112,4.0,10.0,28,0.00,,,0.00,meteohub,2013-09-05 17:57:00,
2013-09-05 14:02:00,87.3,49.3,30.07,SSE,158,0.0,10.0,27,0.00,,,0.00,meteohub,2013-09-05 18:02:00,
2013-09-05 14:07:00,87.1,46.9,30.07,WSW,248,3.0,7.0,25,0.00,,,0.00,meteohub,2013-09-05 18:07:00,
2013-09-05 14:12:00,87.6,50.5,30.07,SW,225,5.0,7.0,28,0.00,,,0.00,meteohub,2013-09-05 18:12:00,
2013-09-05 14:17:00,86.2,45.1,30.07,SW,225,5.0,7.0,24,0.00,,,0.00,meteohub,2013-09-05 18:17:00,
2013-09-05 14:22:00,87.1,49.1,30.07,WSW,248,8.0,8.0,27,0.00,,,0.00,meteohub,2013-09-05 18:22:00,
2013-09-05 14:27:00,86.7,46.8,30.07,East,90,2.0,8.0,25,0.00,,,0.00,meteohub,2013-09-05 18:27:00,
2013-09-05 14:32:00,88.5,48.2,30.07,WNW,292,2.0,8.0,25,0.00,,,0.00,meteohub,2013-09-05 18:32:00,
2013-09-05 14:37:00,88.9,45.1,30.07,ENE,68,3.0,8.0,22,0.00,,,0.00,meteohub,2013-09-05 18:37:00,
2013-09-05 14:42:00,88.7,43.7,30.07,SW,225,2.0,7.0,21,0.00,,,0.00,meteohub,2013-09-05 18:42:00,
2013-09-05 14:47:00,89.2,43.0,30.07,WNW,292,3.0,7.0,20,0.00,,,0.00,meteohub,2013-09-05 18:47:00,
2013-09-05 14:52:00,89.1,41.4,30.07,South,180,3.0,6.0,19,0.00,,,0.00,meteohub,2013-09-05 18:52:00,
2013-09-05 14:57:00,89.8,42.1,30.07,SE,135,0.0,7.0,19,0.00,,,0.00,meteohub,2013-09-05 18:57:00,
2013-09-05 15:02:00,90.0,42.3,30.07,NE,45,2.0,7.0,19,0.00,,,0.00,meteohub,2013-09-05 19:02:00,
2013-09-05 15:07:00,89.8,42.1,30.07,WSW,248,4.0,7.0,19,0.00,,,0.00,meteohub,2013-09-05 19:07:00,
2013-09-05 15:12:00,90.3,43.9,30.07,SW,225,4.0,6.0,20,0.00,,,0.00,meteohub,2013-09-05 19:12:00,
2013-09-05 15:17:00,88.2,40.6,30.07,West,270,4.0,6.0,19,0.00,,,0.00,meteohub,2013-09-05 19:17:00,
2013-09-05 15:22:00,88.9,42.6,30.07,WNW,292,4.0,7.0,20,0.00,,,0.00,meteohub,2013-09-05 19:22:00,
2013-09-05 15:27:00,89.6,41.9,30.07,South,180,2.0,7.0,19,0.00,,,0.00,meteohub,2013-09-05 19:27:00,
2013-09-05 15:33:00,90.1,42.3,30.07,NNW,338,3.0,7.0,19,0.00,,,0.00,meteohub,2013-09-05 19:33:00,
2013-09-05 15:38:00,90.3,42.4,30.07,ENE,68,0.0,6.0,19,0.00,,,0.00,meteohub,2013-09-05 19:38:00,
2013-09-05 15:43:00,90.5,42.6,30.04,ENE,68,3.0,6.0,19,0.00,,,0.00,meteohub,2013-09-05 19:43:00,
2013-09-05 15:48:00,90.9,41.5,30.04,West,270,4.0,6.0,18,0.00,,,0.00,meteohub,2013-09-05 19:48:00,
2013-09-05 15:53:00,90.1,41.0,30.04,West,270,3.0,6.0,18,0.00,,,0.00,meteohub,2013-09-05 19:53:00,
2013-09-05 15:58:00,90.1,43.7,30.04,NNW,338,3.0,6.0,20,0.00,,,0.00,meteohub,2013-09-05 19:58:00,
2013-09-05 16:03:00,90.7,44.1,30.04,West,270,2.0,6.0,20,0.00,,,0.00,meteohub,2013-09-05 20:03:00,
2013-09-05 16:08:00,91.0,43.0,30.04,WSW,248,5.0,5.0,19,0.00,,,0.00,meteohub,2013-09-05 20:08:00,
2013-09-05 16:13:00,89.4,43.0,30.04,West,270,4.0,5.0,20,0.00,,,0.00,meteohub,2013-09-05 20:13:00,
2013-09-05 16:18:00,90.1,42.3,30.04,South,180,3.0,8.0,19,0.00,,,0.00,meteohub,2013-09-05 20:18:00,
2013-09-05 16:23:00,90.0,42.3,30.04,West,270,0.0,8.0,19,0.00,,,0.00,meteohub,2013-09-05 20:23:00,
2013-09-05 16:28:00,90.7,42.8,30.04,SSW,202,3.0,6.0,19,0.00,,,0.00,meteohub,2013-09-05 20:28:00,
2013-09-05 16:33:00,90.9,43.0,30.04,SSE,158,4.0,5.0,19,0.00,,,0.00,meteohub,2013-09-05 20:33:00,
2013-09-05 16:38:00,89.1,42.8,30.04,SSW,202,2.0,5.0,20,0.00,,,0.00,meteohub,2013-09-05 20:38:00,
2013-09-05 16:43:00,90.3,43.9,30.04,WNW,292,0.0,8.0,20,0.00,,,0.00,meteohub,2013-09-05 20:43:00,
2013-09-05 16:48:00,89.8,43.3,30.04,WSW,248,3.0,8.0,20,0.00,,,0.00,meteohub,2013-09-05 20:48:00,
2013-09-05 16:53:00,90.3,43.9,30.04,WSW,248,4.0,6.0,20,0.00,,,0.00,meteohub,2013-09-05 20:53:00,
2013-09-05 16:58:00,90.7,44.1,30.04,East,90,0.0,6.0,20,0.00,,,0.00,meteohub,2013-09-05 20:58:00,
2013-09-05 17:03:00,90.5,43.9,30.04,South,180,4.0,6.0,20,0.00,,,0.00,meteohub,2013-09-05 21:03:00,
2013-09-05 17:08:00,90.3,45.1,30.04,SW,225,2.0,6.0,21,0.00,,,0.00,meteohub,2013-09-05 21:08:00,
2013-09-05 17:13:00,90.1,45.0,30.04,SW,225,4.0,6.0,21,0.00,,,0.00,meteohub,2013-09-05 21:13:00,
2013-09-05 17:18:00,89.1,42.8,30.04,South,180,4.0,6.0,20,0.00,,,0.00,meteohub,2013-09-05 21:18:00,
2013-09-05 17:23:00,88.3,43.5,30.04,SSW,202,4.0,6.0,21,0.00,,,0.00,meteohub,2013-09-05 21:23:00,
2013-09-05 17:28:00,88.2,44.6,30.04,NW,315,0.0,6.0,22,0.00,,,0.00,meteohub,2013-09-05 21:28:00,
2013-09-05 17:33:00,87.8,44.2,30.04,SW,225,3.0,6.0,22,0.00,,,0.00,meteohub,2013-09-05 21:33:00,
2013-09-05 17:38:00,88.3,44.6,30.04,NNW,338,0.0,6.0,22,0.00,,,0.00,meteohub,2013-09-05 21:38:00,
2013-09-05 17:43:00,87.8,45.3,30.04,WNW,292,3.0,5.0,23,0.00,,,0.00,meteohub,2013-09-05 21:43:00,
2013-09-05 17:48:00,87.1,44.8,30.04,NW,315,0.0,5.0,23,0.00,,,0.00,meteohub,2013-09-05 21:48:00,
2013-09-05 17:53:00,86.9,45.7,30.04,West,270,0.0,4.0,24,0.00,,,0.00,meteohub,2013-09-05 21:53:00,
2013-09-05 17:58:00,86.9,45.7,30.04,NNW,338,0.0,4.0,24,0.00,,,0.00,meteohub,2013-09-05 21:58:00,
2013-09-05 18:03:00,84.9,45.1,30.04,NNW,338,0.0,4.0,25,0.00,,,0.00,meteohub,2013-09-05 22:03:00,
2013-09-05 18:08:00,83.8,47.3,30.04,SW,225,3.0,3.0,28,0.00,,,0.00,meteohub,2013-09-05 22:08:00,
2013-09-05 18:13:00,83.3,47.7,30.04,NNW,338,0.0,3.0,29,0.00,,,0.00,meteohub,2013-09-05 22:13:00,
2013-09-05 18:18:00,82.2,47.7,30.04,WNW,292,0.0,3.0,30,0.00,,,0.00,meteohub,2013-09-05 22:18:00,
2013-09-05 18:23:00,81.3,47.8,30.04,WNW,292,0.0,3.0,31,0.00,,,0.00,meteohub,2013-09-05 22:23:00,
2013-09-05 18:29:00,81.0,48.4,30.04,WNW,292,0.0,2.0,32,0.00,,,0.00,meteohub,2013-09-05 22:29:00,
2013-09-05 18:34:00,80.4,48.7,30.04,WNW,292,0.0,0.0,33,0.00,,,0.00,meteohub,2013-09-05 22:34:00,
2013-09-05 18:39:00,79.9,49.8,30.04,WNW,292,0.0,0.0,35,0.00,,,0.00,meteohub,2013-09-05 22:39:00,
2013-09-05 18:44:00,79.5,49.5,30.04,WNW,292,0.0,0.0,35,0.00,,,0.00,meteohub,2013-09-05 22:44:00,
2013-09-05 18:49:00,78.8,51.8,30.04,WNW,292,0.0,0.0,39,0.00,,,0.00,meteohub,2013-09-05 22:49:00,
2013-09-05 18:54:00,77.9,51.6,30.04,WNW,292,0.0,0.0,40,0.00,,,0.00,meteohub,2013-09-05 22:54:00,
2013-09-05 18:59:00,77.5,52.0,30.04,WNW,292,0.0,0.0,41,0.00,,,0.00,meteohub,2013-09-05 22:59:00,
2013-09-05 19:04:00,76.8,53.2,30.04,WNW,292,0.0,0.0,44,0.00,,,0.00,meteohub,2013-09-05 23:04:00,
2013-09-05 19:09:00,76.3,53.4,30.04,WNW,292,0.0,0.0,45,0.00,,,0.00,meteohub,2013-09-05 23:09:00,
2013-09-05 19:14:00,75.9,54.3,30.04,WNW,292,0.0,0.0,47,0.00,,,0.00,meteohub,2013-09-05 23:14:00,
2013-09-05 19:19:00,75.6,54.0,30.04,WNW,292,0.0,0.0,47,0.00,,,0.00,meteohub,2013-09-05 23:19:00,
2013-09-05 19:24:00,75.0,54.0,30.04,WNW,292,0.0,0.0,48,0.00,,,0.00,meteohub,2013-09-05 23:24:00,
2013-09-05 19:29:00,74.7,54.3,30.04,WNW,292,0.0,0.0,49,0.00,,,0.00,meteohub,2013-09-05 23:29:00,
2013-09-05 19:34:00,74.1,54.3,30.04,WNW,292,0.0,0.0,50,0.00,,,0.00,meteohub,2013-09-05 23:34:00,
2013-09-05 19:39:00,73.6,54.3,30.04,WNW,292,0.0,0.0,51,0.00,,,0.00,meteohub,2013-09-05 23:39:00,
2013-09-05 19:44:00,73.2,55.0,30.04,WNW,292,0.0,0.0,53,0.00,,,0.00,meteohub,2013-09-05 23:44:00,
2013-09-05 19:49:00,72.9,55.2,30.04,WNW,292,0.0,0.0,54,0.00,,,0.00,meteohub,2013-09-05 23:49:00,
2013-09-05 19:54:00,72.3,56.3,30.04,WNW,292,0.0,0.0,57,0.00,,,0.00,meteohub,2013-09-05 23:54:00,
2013-09-05 19:59:00,71.8,55.8,30.04,WNW,292,0.0,0.0,57,0.00,,,0.00,meteohub,2013-09-05 23:59:00,
2013-09-05 20:04:00,71.4,56.3,30.04,WNW,292,0.0,0.0,59,0.00,,,0.00,meteohub,2013-09-06 00:04:00,
2013-09-05 20:09:00,70.9,56.3,30.04,SSW,202,0.0,0.0,60,0.00,,,0.00,meteohub,2013-09-06 00:09:00,
2013-09-05 20:14:00,70.5,56.5,30.07,SSW,202,0.0,0.0,61,0.00,,,0.00,meteohub,2013-09-06 00:14:00,
2013-09-05 20:19:00,70.3,57.2,30.07,SSW,202,0.0,0.0,63,0.00,,,0.00,meteohub,2013-09-06 00:19:00,
2013-09-05 20:24:00,70.0,56.8,30.07,SSW,202,0.0,0.0,63,0.00,,,0.00,meteohub,2013-09-06 00:24:00,
2013-09-05 20:29:00,69.8,57.0,30.07,SSW,202,0.0,0.0,64,0.00,,,0.00,meteohub,2013-09-06 00:29:00,
2013-09-05 20:34:00,69.6,57.4,30.07,SSW,202,0.0,0.0,65,0.00,,,0.00,meteohub,2013-09-06 00:34:00,
2013-09-05 20:39:00,69.3,57.4,30.07,SSW,202,0.0,0.0,66,0.00,,,0.00,meteohub,2013-09-06 00:39:00,
2013-09-05 20:44:00,69.1,57.2,30.07,SSW,202,0.0,0.0,66,0.00,,,0.00,meteohub,2013-09-06 00:44:00,
2013-09-05 20:49:00,68.9,57.6,30.07,SSW,202,0.0,0.0,67,0.00,,,0.00,meteohub,2013-09-06 00:49:00,
2013-09-05 20:54:00,68.7,57.7,30.07,SSW,202,0.0,0.0,68,0.00,,,0.00,meteohub,2013-09-06 00:54:00,
2013-09-05 20:59:00,68.4,57.7,30.07,SSW,202,0.0,0.0,69,0.00,,,0.00,meteohub,2013-09-06 00:59:00,
2013-09-05 21:04:00,68.2,58.1,30.07,SSW,202,0.0,0.0,70,0.00,,,0.00,meteohub,2013-09-06 01:04:00,
2013-09-05 21:09:00,68.0,57.9,30.07,SSW,202,0.0,0.0,70,0.00,,,0.00,meteohub,2013-09-06 01:09:00,
2013-09-05 21:14:00,67.8,58.1,30.07,SSW,202,0.0,0.0,71,0.00,,,0.00,meteohub,2013-09-06 01:14:00,
2013-09-05 21:19:00,67.6,57.9,30.07,SSW,202,0.0,0.0,71,0.00,,,0.00,meteohub,2013-09-06 01:19:00,
2013-09-05 21:24:00,67.6,58.3,30.07,SSW,202,0.0,0.0,72,0.00,,,0.00,meteohub,2013-09-06 01:24:00,
2013-09-05 21:30:00,67.5,58.1,30.07,SSW,202,0.0,0.0,72,0.00,,,0.00,meteohub,2013-09-06 01:30:00,
2013-09-05 21:35:00,67.3,58.3,30.07,SSW,202,0.0,0.0,73,0.00,,,0.00,meteohub,2013-09-06 01:35:00,
2013-09-05 21:40:00,67.3,58.6,30.07,SSW,202,0.0,0.0,74,0.00,,,0.00,meteohub,2013-09-06 01:40:00,
2013-09-05 21:45:00,67.1,58.5,30.07,SSW,202,0.0,0.0,74,0.00,,,0.00,meteohub,2013-09-06 01:45:00,
2013-09-05 21:50:00,67.1,58.5,30.07,SSW,202,0.0,0.0,74,0.00,,,0.00,meteohub,2013-09-06 01:50:00,
2013-09-05 21:55:00,66.9,58.8,30.07,SSW,202,0.0,0.0,75,0.00,,,0.00,meteohub,2013-09-06 01:55:00,
2013-09-05 22:00:00,66.9,58.8,30.10,SSW,202,0.0,0.0,75,0.00,,,0.00,meteohub,2013-09-06 02:00:00,
2013-09-05 22:05:00,66.7,59.0,30.10,SSW,202,0.0,0.0,76,0.00,,,0.00,meteohub,2013-09-06 02:05:00,
2013-09-05 22:10:00,66.6,59.5,30.10,SSW,202,0.0,0.0,78,0.00,,,0.00,meteohub,2013-09-06 02:10:00,
2013-09-05 22:15:00,66.4,59.7,30.10,SSW,202,0.0,0.0,79,0.00,,,0.00,meteohub,2013-09-06 02:15:00,
2013-09-05 22:20:00,66.4,60.1,30.10,SSW,202,0.0,0.0,80,0.00,,,0.00,meteohub,2013-09-06 02:20:00,
2013-09-05 22:25:00,66.2,59.9,30.10,SSW,202,0.0,0.0,80,0.00,,,0.00,meteohub,2013-09-06 02:25:00,
2013-09-05 22:30:00,66.2,59.5,30.10,SSW,202,0.0,0.0,79,0.00,,,0.00,meteohub,2013-09-06 02:30:00,
2013-09-05 22:35:00,66.2,59.2,30.10,SSW,202,0.0,0.0,78,0.00,,,0.00,meteohub,2013-09-06 02:35:00,
2013-09-05 22:40:00,66.0,59.4,30.10,SSW,202,0.0,0.0,79,0.00,,,0.00,meteohub,2013-09-06 02:40:00,
2013-09-05 22:45:00,66.0,59.0,30.10,South,180,0.0,0.0,78,0.00,,,0.00,meteohub,2013-09-06 02:45:00,
2013-09-05 22:50:00,66.2,58.8,30.10,South,180,0.0,0.0,77,0.00,,,0.00,meteohub,2013-09-06 02:50:00,
2013-09-05 22:55:00,66.2,58.5,30.10,South,180,0.0,0.0,76,0.00,,,0.00,meteohub,2013-09-06 02:55:00,
2013-09-05 23:00:00,66.0,58.6,30.10,South,180,0.0,0.0,77,0.00,,,0.00,meteohub,2013-09-06 03:00:00,
2013-09-05 23:05:00,66.0,59.0,30.10,South,180,0.0,0.0,78,0.00,,,0.00,meteohub,2013-09-06 03:05:00,
2013-09-05 23:10:00,65.8,59.2,30.10,South,180,0.0,0.0,79,0.00,,,0.00,meteohub,2013-09-06 03:10:00,
2013-09-05 23:15:00,65.7,59.4,30.10,South,180,0.0,0.0,80,0.00,,,0.00,meteohub,2013-09-06 03:15:00,
2013-09-05 23:20:00,65.5,59.5,30.10,South,180,0.0,0.0,81,0.00,,,0.00,meteohub,2013-09-06 03:20:00,
2013-09-05 23:25:00,65.5,59.9,30.10,South,180,0.0,0.0,82,0.00,,,0.00,meteohub,2013-09-06 03:25:00,
2013-09-05 23:30:00,65.3,59.7,30.10,South,180,0.0,0.0,82,0.00,,,0.00,meteohub,2013-09-06 03:30:00,
2013-09-05 23:35:00,65.5,59.9,30.10,South,180,0.0,0.0,82,0.00,,,0.00,meteohub,2013-09-06 03:35:00,
2013-09-05 23:40:00,65.5,59.9,30.10,South,180,0.0,0.0,82,0.00,,,0.00,meteohub,2013-09-06 03:40:00,
2013-09-05 23:45:00,65.7,60.1,30.10,South,180,0.0,0.0,82,0.00,,,0.00,meteohub,2013-09-06 03:45:00,
2013-09-05 23:50:00,65.7,59.7,30.10,South,180,0.0,0.0,81,0.00,,,0.00,meteohub,2013-09-06 03:50:00,
2013-09-05 23:56:00,65.7,59.7,30.10,South,180,0.0,0.0,81,0.00,,,0.00,meteohub,2013-09-06 03:56:00,